Date,TemperatureHighF,TemperatureAvgF,TemperatureLowF,DewpointHighF,DewpointAvgF,DewpointLowF,HumidityHigh,HumidityAvg,HumidityLow,PressureMaxIn,PressureMinIn,WindSpeedMaxMPH,WindSpeedAvgMPH,GustSpeedMaxMPH,PrecipitationSumIn
2014-1-1,43.3,37.4,30.8,37.1,29.4,21.2,95,73,58,30.41,30.12,22,6,22,0.00
2014-1-2,39.9,37.3,30.6,38.0,35.9,29.8,97,95,91,30.12,29.55,18,5,18,0.12
2014-1-3,30.7,23.0,18.3,30.2,14.8,6.2,98,72,51,30.48,29.56,33,14,33,0.00
2014-1-4,36.7,28.1,19.7,30.3,18.9,7.0,79,68,57,30.53,30.25,19,9,19,0.00
2014-1-5,49.1,39.7,35.3,48.6,37.0,29.2,99,90,74,30.26,29.69,21,3,21,0.06
2014-1-6,54.1,38.7,12.7,54.0,32.5,-3.7,100,80,44,30.05,29.45,34,11,39,0.42
2014-1-7,18.2,13.0,7.3,6.7,-1.9,-7.4,64,51,41,30.44,30.05,31,8,31,0.00
2014-1-8,28.0,22.6,16.6,22.3,11.8,4.9,79,63,46,30.61,30.43,15,6,15,0.00
2014-1-9,38.9,31.4,27.9,28.4,25.1,21.4,89,78,55,30.64,30.47,12,3,12,0.00
2014-1-10,38.1,34.0,31.4,37.8,32.6,27.2,100,95,83,30.52,30.09,11,2,11,0.58
2014-1-11,55.2,44.8,36.5,54.7,44.7,36.1,100,100,98,30.09,29.39,24,5,24,0.28
2014-1-12,49.2,45.5,41.0,48.9,37.3,32.5,100,73,61,29.95,29.51,22,6,22,0.00
2014-1-15,48.0,41.8,38.1,48.0,40.8,34.3,100,96,82,29.95,29.84,21,6,21,0.01
2014-1-16,38.2,35.3,32.6,34.8,29.5,23.6,96,80,56,30.00,29.85,21,6,21,0.01
2014-1-17,43.6,38.2,34.8,37.4,33.8,30.4,92,84,69,29.96,29.77,17,5,17,0.00
2014-1-18,41.8,32.1,25.6,38.1,22.3,13.5,90,68,51,29.98,29.74,24,7,24,0.00
2014-1-19,47.8,37.1,25.5,33.2,25.6,14.2,80,63,51,29.97,29.73,19,6,19,0.00
2014-1-20,54.5,42.7,36.4,37.1,32.6,29.8,84,68,43,29.87,29.62,21,5,21,0.00
2014-1-21,37.4,29.9,19.2,34.1,27.0,17.3,96,89,76,29.86,29.68,36,17,36,0.00
2014-1-22,19.4,14.6,10.0,17.5,5.2,1.8,93,67,52,30.08,29.81,35,14,35,0.00
2014-1-23,27.1,19.6,15.0,16.0,7.2,2.8,67,58,45,30.41,30.07,25,7,25,0.00
2014-1-24,23.2,17.9,12.7,9.7,3.9,0.1,66,54,38,30.53,30.12,27,8,27,0.00
2014-1-25,33.2,27.1,22.6,25.0,15.0,6.6,93,61,50,30.12,29.47,33,11,33,0.00
2014-1-26,36.4,28.8,23.1,29.7,18.7,9.3,82,66,50,29.93,29.61,27,8,27,0.00
2014-1-27,46.9,35.8,23.7,35.8,25.4,8.3,77,66,48,30.16,29.65,29,12,29,0.00
2014-1-28,23.7,17.4,15.3,13.2,5.0,-0.8,90,58,45,30.43,30.15,33,10,33,0.00
2014-1-29,23.1,18.1,13.9,13.4,6.5,-0.6,92,63,42,30.36,30.17,19,7,21,0.00
2014-1-30,28.3,23.2,19.3,18.8,11.6,3.8,82,61,46,30.47,30.19,14,4,15,0.00
2014-1-31,38.0,29.9,23.7,27.6,22.0,17.4,90,73,49,30.22,30.11,12,2,12,0.00
2014-2-1,44.4,34.4,27.0,37.1,29.6,23.1,93,83,63,30.29,29.99,9,1,12,0.00
2014-2-2,50.7,39.0,33.2,38.6,35.2,31.7,100,87,57,30.03,29.92,10,2,10,0.00
2014-2-3,40.0,36.0,33.7,38.2,34.5,31.4,100,95,85,30.31,29.93,27,12,27,0.89
2014-2-4,34.4,32.3,29.9,31.7,28.6,26.4,96,86,77,30.46,30.12,17,7,17,0.06
2014-2-5,40.5,34.6,32.2,36.2,33.0,26.7,98,94,70,30.12,29.68,26,7,26,0.16
2014-2-6,34.0,30.5,28.4,26.8,23.0,19.7,80,73,64,30.32,30.05,31,9,31,0.00
2014-2-7,37.0,32.2,26.9,30.4,26.5,23.3,93,80,64,30.34,30.25,14,2,14,0.00
2014-2-8,32.0,30.2,25.8,29.5,22.2,17.4,94,72,58,30.33,30.17,16,6,16,0.00
2014-2-9,33.7,30.2,25.1,31.6,25.3,20.1,94,82,70,30.20,29.97,17,4,17,0.00
2014-2-10,32.7,29.3,26.3,29.9,20.6,15.5,93,70,57,30.32,30.03,36,13,36,0.00
2014-2-11,28.2,25.9,23.3,18.6,15.9,12.9,74,66,55,30.45,30.31,21,10,21,0.00
2014-2-12,29.4,24.8,18.8,27.7,18.1,10.4,96,76,65,30.51,30.07,19,9,19,0.00
2014-2-13,35.7,33.3,28.7,34.4,32.5,27.7,98,97,95,30.07,29.21,32,13,32,0.90
2014-2-14,49.7,38.2,33.4,36.4,31.9,25.6,98,78,55,29.71,29.30,21,4,21,0.06
2014-2-15,35.7,34.8,30.1,34.1,31.8,19.2,95,89,63,29.92,29.56,23,4,23,0.06
2014-2-16,34.2,30.8,26.9,26.4,20.1,13.7,80,64,54,30.18,29.92,20,6,23,0.00
2014-2-17,31.6,29.2,26.6,26.0,19.1,13.0,80,66,47,30.43,30.18,20,8,20,0.00
2014-2-18,51.4,38.4,29.4,38.3,32.4,26.0,97,80,51,30.25,30.00,18,4,18,0.12
2014-2-19,59.3,46.3,36.0,52.6,39.4,32.0,98,78,48,30.12,29.69,21,6,21,0.08
2014-2-20,48.7,41.5,34.4,38.6,35.5,31.0,92,80,60,30.25,29.93,15,2,15,0.00
2014-2-21,56.1,44.8,37.0,55.2,43.6,36.2,99,96,88,29.95,29.65,29,4,30,0.44
2014-2-22,50.9,43.2,34.6,41.0,37.4,31.8,99,81,63,30.11,29.94,18,5,18,0.00
2014-2-23,56.7,47.3,42.8,42.8,38.1,35.0,83,71,52,30.02,29.84,21,6,21,0.00
2014-2-24,44.7,40.3,35.3,39.3,25.8,16.2,89,58,37,30.13,29.89,29,9,29,0.00
2014-2-25,35.4,32.8,29.6,31.2,24.9,16.3,94,74,47,30.12,29.99,15,3,15,0.04
2014-2-26,36.2,31.1,26.9,30.0,23.0,12.5,95,73,52,30.01,29.83,20,7,20,0.04
2014-2-27,39.9,31.3,22.8,27.4,17.2,10.0,79,57,37,30.13,29.66,34,12,34,0.00
2014-2-28,25.2,20.6,16.7,15.3,6.8,-0.2,67,55,36,30.43,30.12,34,12,34,0.00
2014-3-1,38.1,31.4,23.7,31.7,21.5,9.6,88,67,52,30.39,30.15,16,4,16,0.00
2014-3-2,48.2,39.6,36.0,39.7,35.6,31.5,96,86,66,30.15,29.94,24,6,24,0.22
2014-3-3,36.8,25.5,19.7,35.8,22.0,12.2,97,87,62,30.33,29.96,32,18,32,0.14
2014-3-4,27.5,23.6,18.5,20.8,14.2,8.8,76,67,60,30.40,30.22,27,8,27,0.01
2014-3-5,37.8,32.3,26.9,27.4,21.9,17.6,74,65,55,30.37,30.18,22,8,22,0.03
2014-3-6,33.2,30.1,26.4,27.4,23.5,19.4,86,76,67,30.55,30.34,21,13,23,0.00
2014-3-7,37.9,35.2,31.1,34.0,31.3,27.1,93,86,81,30.34,29.88,24,14,24,0.00
2014-3-8,54.6,42.4,33.7,41.9,35.4,28.9,90,77,59,29.95,29.85,17,4,20,0.00
2014-3-9,46.9,42.7,36.2,39.1,33.6,26.3,91,71,46,30.07,29.87,22,7,23,0.00
2014-3-10,49.4,42.3,36.4,40.9,36.0,31.1,90,78,63,30.01,29.64,11,4,14,0.02
2014-3-11,65.5,53.2,42.5,46.7,40.7,35.9,82,63,44,29.70,29.61,12,2,12,0.00
2014-3-12,56.0,48.1,35.9,53.1,43.3,26.1,94,84,64,29.62,29.04,32,7,34,0.25
2014-3-13,35.8,29.7,23.6,26.2,13.5,7.4,71,51,36,30.18,29.40,38,13,38,0.00
2014-3-14,44.8,37.7,27.2,36.5,25.1,10.9,78,61,44,30.25,29.89,25,9,25,0.00
2014-3-15,64.2,51.6,43.3,41.8,36.1,31.1,75,56,35,30.02,29.82,15,6,19,0.00
2014-3-16,45.2,39.4,31.0,37.4,31.7,24.6,97,75,54,30.16,30.02,27,10,27,0.00
2014-3-17,31.0,28.6,27.1,30.2,26.7,23.9,98,93,75,30.08,29.94,28,15,28,0.00
2014-3-18,40.0,35.2,30.7,33.0,28.4,22.6,85,76,68,30.22,30.03,21,12,21,0.00
2014-3-19,40.9,38.1,35.4,40.6,36.3,31.9,99,93,85,30.20,29.86,15,5,15,0.21
2014-3-20,56.6,47.5,40.5,48.0,38.2,30.1,100,74,40,29.99,29.80,17,4,17,0.00
2014-3-21,48.5,44.5,38.3,42.2,35.9,28.2,93,72,51,30.07,29.98,20,3,20,0.00
2014-3-22,65.5,50.9,40.9,45.0,41.1,35.7,95,71,45,30.01,29.81,19,5,19,0.00
2014-3-23,49.2,42.9,37.4,39.5,32.5,18.9,77,67,47,30.12,29.96,25,10,25,0.00
2014-3-24,37.4,32.2,27.4,24.0,17.6,12.4,68,55,45,30.30,30.12,27,9,27,0.00
2014-3-25,37.2,34.6,32.6,34.9,29.7,19.1,96,83,57,30.14,29.81,23,10,23,0.01
2014-3-26,36.1,33.2,30.5,31.6,20.4,12.3,95,62,39,30.31,29.84,32,12,32,0.01
2014-3-27,41.9,36.2,30.0,37.4,23.6,13.4,87,60,47,30.45,30.22,24,9,24,0.00
2014-3-28,60.9,48.9,41.6,52.6,44.3,36.4,93,84,73,30.22,29.99,23,9,23,0.00
2014-3-29,54.9,50.6,47.2,54.9,49.8,46.3,100,97,88,30.08,29.53,22,4,23,0.98
2014-3-30,51.4,43.3,35.7,51.4,42.6,34.4,100,98,92,29.77,29.43,33,11,33,0.45
2014-3-31,57.9,48.2,39.6,42.9,39.5,36.1,95,73,52,30.05,29.77,32,13,32,0.00
2014-4-1,53.4,47.6,43.5,46.0,40.6,36.4,90,77,65,30.16,29.97,15,5,15,0.00
2014-4-2,58.6,49.4,44.0,50.4,45.3,41.5,94,86,72,30.09,29.98,16,4,16,0.00
2014-4-3,60.6,53.2,48.3,53.0,49.3,46.1,95,87,71,30.08,29.92,10,1,10,0.01
2014-4-4,56.9,51.4,48.9,52.7,48.6,45.5,97,90,83,29.94,29.66,20,7,20,0.01
2014-4-5,57.4,51.1,47.0,49.3,42.5,35.1,99,75,51,30.13,29.68,22,8,22,0.00
2014-4-6,53.9,46.8,42.4,40.9,33.9,24.7,82,62,34,30.25,30.13,23,7,23,0.00
2014-4-7,55.4,48.6,43.4,54.8,45.4,33.6,99,89,65,30.17,29.63,30,8,30,0.24
2014-4-8,63.2,56.5,51.4,59.1,50.2,41.8,100,81,55,29.66,29.46,17,5,17,0.07
2014-4-9,62.0,53.7,45.6,48.8,41.4,35.7,84,64,44,30.01,29.64,19,4,19,0.00
2014-4-10,61.8,55.2,46.8,49.2,43.9,34.3,88,66,52,30.21,30.01,26,7,26,0.00
2014-4-11,70.2,61.0,54.6,55.5,50.7,46.2,85,69,54,30.05,29.89,20,6,20,0.00
2014-4-12,70.0,60.4,53.7,56.3,52.4,43.2,94,77,41,30.24,30.01,18,4,18,0.00
2014-4-13,68.3,61.0,54.1,61.0,57.0,52.3,97,87,74,30.15,29.99,26,9,26,0.00
2014-4-14,67.3,62.7,58.8,61.4,58.5,55.5,92,86,76,30.01,29.80,24,10,24,0.01
2014-4-15,63.6,56.2,39.6,63.3,54.7,35.0,99,95,83,29.99,29.53,38,16,38,0.48
2014-4-16,46.4,41.1,35.0,35.3,28.9,22.4,82,62,50,30.51,29.98,34,16,34,0.00
2014-4-17,51.6,45.4,41.3,41.3,37.1,32.5,82,73,60,30.64,30.51,23,11,23,0.00
2014-4-18,48.7,44.2,40.3,43.2,38.5,34.6,88,80,74,30.56,30.25,19,4,19,0.00
2014-4-19,61.4,53.6,43.6,51.6,46.8,41.9,96,79,62,30.27,30.18,13,1,13,0.00
2014-4-20,60.3,53.4,47.9,48.5,42.9,34.9,80,68,58,30.40,30.19,26,12,26,0.00
2014-4-21,62.1,52.5,44.0,51.5,43.7,33.7,91,72,58,30.27,29.87,15,5,15,0.00
2014-4-22,68.0,58.4,52.4,59.2,54.3,50.6,96,87,67,29.87,29.55,25,5,25,0.01
2014-4-23,58.9,54.6,48.9,54.0,42.5,36.3,88,64,56,29.95,29.59,31,11,31,0.00
2014-4-24,61.0,52.1,45.8,47.5,36.6,29.1,82,56,37,30.08,29.95,23,6,23,0.00
2014-4-25,63.2,55.8,50.1,55.9,47.5,37.7,97,75,54,30.01,29.66,27,9,30,0.65
2014-4-26,63.1,55.2,52.1,55.1,49.4,44.5,98,81,65,29.87,29.67,21,7,21,0.00
2014-4-27,61.7,59.4,55.9,50.2,46.5,42.8,71,62,51,30.08,29.97,13,6,13,0.00
2014-4-28,59.1,53.1,48.5,50.0,46.9,42.9,96,80,63,30.10,29.97,22,6,22,0.21
2014-4-29,52.4,50.7,48.9,51.6,48.7,45.2,97,93,87,30.19,30.05,31,17,31,0.97
2014-4-30,65.5,59.4,52.1,64.7,58.9,51.2,100,98,96,30.18,29.83,33,14,33,0.76
2014-5-1,71.2,64.0,58.7,66.2,61.3,52.0,100,91,64,29.83,29.67,26,4,27,0.05
2014-5-2,67.5,61.8,56.7,55.5,50.5,43.4,85,67,47,29.86,29.74,20,4,20,0.00
2014-5-3,66.7,61.4,57.0,57.9,54.5,50.3,88,78,67,29.86,29.71,14,4,14,0.00
2014-5-4,72.3,63.0,56.0,57.1,50.7,45.5,89,65,44,29.88,29.66,28,8,28,0.00
2014-5-5,63.0,56.7,51.1,50.3,44.3,38.6,92,64,46,30.00,29.85,27,8,27,0.06
2014-5-6,65.8,58.0,51.8,56.4,51.6,47.5,95,80,56,30.02,29.88,14,2,14,0.00
2014-5-7,62.5,59.3,55.6,57.4,52.9,45.2,97,80,64,30.24,30.01,19,8,19,0.06
2014-5-8,72.9,65.4,59.0,67.8,62.4,54.6,96,90,80,30.12,29.99,16,3,16,0.00
2014-5-9,68.9,62.7,58.4,65.7,61.1,57.8,99,95,84,30.10,29.93,19,4,19,0.00
2014-5-10,74.1,69.1,65.5,67.8,64.5,62.8,95,86,73,29.99,29.88,21,5,21,0.00
2014-5-11,73.3,68.1,61.9,64.0,61.2,56.7,97,79,59,30.11,29.92,14,3,14,0.00
2014-5-12,79.3,71.1,64.3,71.4,66.2,61.2,94,85,74,30.11,30.01,17,5,18,0.00
2014-5-13,84.9,71.6,58.9,74.7,67.3,56.8,97,87,61,30.18,30.00,21,5,21,0.00
2014-5-14,69.4,63.6,58.8,67.3,62.5,57.4,99,96,90,30.20,30.10,20,5,20,0.00
2014-5-15,76.9,70.8,64.3,72.4,68.2,64.0,100,92,77,30.12,29.91,0,0,0,0.00
2014-5-16,71.3,63.6,56.6,69.9,61.2,56.6,100,92,75,29.91,29.73,21,4,21,1.41
2014-5-17,66.4,61.1,56.5,57.9,49.9,44.9,82,67,54,30.08,29.85,20,4,20,0.00
2014-5-18,66.9,61.3,56.7,53.9,48.1,42.5,75,62,46,30.17,30.08,18,5,18,0.00
2014-5-19,69.9,62.9,55.0,57.0,50.3,44.8,74,64,44,30.22,30.09,11,3,11,0.00
2014-5-20,73.3,66.6,59.6,64.1,54.8,48.1,88,67,46,30.14,29.94,14,3,16,0.00
2014-5-21,75.1,68.8,65.0,68.1,65.1,61.3,100,88,73,29.94,29.82,15,4,15,0.01
2014-5-22,78.5,70.1,64.3,74.2,68.0,61.9,100,94,75,29.82,29.66,42,3,42,0.55
2014-5-23,75.1,68.4,61.2,62.6,56.4,50.5,76,66,53,29.93,29.80,21,7,21,0.01
2014-5-24,73.5,65.3,58.1,62.6,56.7,50.1,88,74,59,30.03,29.92,19,5,19,0.00
2014-5-25,76.3,69.1,61.2,65.3,60.8,56.2,90,76,53,30.10,30.01,10,3,10,0.00
2014-5-26,82.8,73.4,65.5,71.3,66.6,61.1,91,80,60,30.06,29.91,10,2,10,0.00
2014-5-27,87.2,75.5,68.4,77.3,70.4,66.5,100,85,66,29.91,29.77,26,4,26,0.10
2014-5-28,82.6,71.7,59.8,75.4,68.9,58.4,100,91,74,30.03,29.77,27,6,27,0.07
2014-5-29,60.1,57.8,57.0,59.0,57.5,56.6,100,99,94,30.13,30.03,20,9,20,0.01
2014-5-30,70.9,62.7,56.3,63.1,59.3,56.3,100,90,69,30.08,30.00,13,4,13,0.01
2014-5-31,75.4,68.8,61.0,62.8,59.2,54.8,92,73,50,30.22,30.01,18,8,18,0.01
2014-6-1,74.4,65.5,53.8,60.7,55.7,50.0,89,71,57,30.31,30.20,16,3,16,0.00
2014-6-2,74.7,68.1,60.1,65.1,59.1,52.3,85,73,59,30.23,30.00,13,4,13,0.00
2014-6-3,81.2,72.5,66.8,73.1,67.7,62.0,100,85,71,30.00,29.78,13,2,13,0.01
2014-6-4,82.6,75.6,68.8,74.3,70.5,61.3,100,85,49,29.80,29.64,17,2,17,0.02
2014-6-5,78.5,71.2,65.3,71.8,66.7,59.1,100,86,65,29.78,29.51,24,5,24,0.01
2014-6-6,74.8,68.2,64.7,62.3,58.2,55.2,80,70,56,29.96,29.77,15,5,15,0.36
2014-6-7,79.8,71.1,63.6,66.2,63.1,58.7,96,77,54,30.02,29.92,10,2,10,0.00
2014-6-8,80.0,73.9,67.0,70.3,66.5,62.3,90,78,58,29.95,29.82,22,6,22,0.00
2014-6-9,80.5,75.4,71.4,74.1,70.2,66.8,96,84,72,29.88,29.82,21,6,21,0.01
2014-6-10,81.1,76.9,73.8,77.4,74.7,72.2,98,93,86,29.90,29.83,13,3,14,0.13
2014-6-11,83.1,75.2,68.4,76.3,72.7,66.9,97,92,77,30.02,29.88,25,9,25,0.27
2014-6-12,74.8,72.3,69.8,74.2,71.5,68.8,99,97,95,29.99,29.82,23,10,23,0.52
2014-6-13,80.7,74.6,71.8,76.6,72.3,69.0,99,93,80,29.82,29.71,21,4,21,0.00
2014-6-14,74.5,71.4,68.8,69.1,61.4,56.7,91,71,57,30.07,29.79,22,10,22,0.00
2014-6-15,76.5,70.9,64.7,69.6,61.8,56.3,90,73,63,30.16,30.06,19,5,19,0.00
2014-6-16,83.5,76.6,68.7,75.1,71.2,66.4,95,84,64,30.11,30.02,12,2,12,0.00
2014-6-17,82.5,77.8,74.4,78.2,74.4,72.1,96,89,81,30.07,30.00,11,2,11,0.00
2014-7-3,87.5,81.7,73.4,80.2,75.7,70.3,91,82,72,29.95,29.86,21,6,21,0.13
2014-7-4,78.1,75.8,74.0,73.5,68.5,55.7,91,79,51,30.06,29.87,33,13,33,0.00
2014-7-5,78.1,76.6,73.8,62.4,58.7,53.6,66,54,44,30.21,30.14,12,3,12,0.00
2014-7-6,81.8,78.3,72.0,70.6,67.4,62.5,80,70,59,30.14,29.93,24,9,24,0.00
2014-7-7,87.5,79.9,73.4,75.9,69.9,65.2,78,72,60,29.93,29.78,19,5,19,0.00
2014-7-8,90.8,82.2,73.7,76.6,72.7,67.5,89,74,60,29.86,29.69,27,6,27,0.08
2014-7-9,83.7,77.8,73.0,75.8,72.3,67.5,89,83,71,29.94,29.79,21,3,21,0.26
2014-7-10,83.2,76.5,71.1,78.4,73.5,68.7,100,91,78,30.04,29.93,18,3,18,1.43
2014-7-11,87.0,77.2,72.0,76.5,72.6,70.4,100,86,64,30.14,30.03,11,4,11,0.00
2014-7-12,84.3,78.1,72.8,76.5,73.8,69.1,100,87,63,30.16,30.05,18,5,18,0.00
2014-7-13,87.4,80.5,74.2,80.2,76.6,72.2,100,88,76,30.06,29.85,17,5,17,0.06
2014-7-14,80.7,79.5,78.3,76.2,75.4,74.4,91,87,85,29.85,29.85,6,1,6,0.00
2014-7-15,88.0,78.5,72.8,82.0,76.4,72.8,100,94,77,29.72,29.62,20,2,20,0.63
2014-7-16,83.8,75.9,72.7,73.9,67.3,59.7,100,76,55,29.85,29.69,18,5,18,0.00
2014-7-17,84.7,75.6,69.6,71.7,64.5,59.9,82,69,52,30.05,29.84,14,4,14,0.00
2014-7-18,84.5,77.1,70.9,70.6,63.6,55.0,80,64,45,30.16,30.05,13,4,17,0.00
2014-7-19,78.1,74.4,69.9,72.1,65.6,58.2,96,74,58,30.14,30.05,14,6,14,0.00
2014-7-20,84.3,74.9,70.9,78.1,71.8,69.2,99,90,71,30.06,29.99,14,6,14,0.00
2014-7-21,81.6,74.9,69.8,74.5,71.1,68.0,99,88,69,30.13,30.05,13,4,13,0.00
2014-7-22,83.8,78.0,73.5,75.8,73.2,69.4,100,86,67,30.13,30.00,11,3,11,0.00
2014-7-23,86.5,80.7,75.1,81.3,77.4,72.7,100,90,79,30.00,29.72,18,4,18,0.22
2014-7-24,82.6,75.7,73.0,76.7,71.8,64.9,100,88,69,29.86,29.75,14,5,14,0.00
2014-7-25,83.8,74.7,68.1,70.4,64.1,60.0,84,70,53,29.99,29.86,17,5,17,0.00
2014-7-26,86.1,77.2,72.8,79.4,72.1,65.3,97,84,72,29.94,29.81,12,4,12,0.00
2014-7-27,83.4,78.4,74.4,77.7,74.8,69.8,98,89,79,29.81,29.55,13,3,17,0.01
2014-7-28,84.0,79.1,71.5,76.4,69.4,62.4,97,74,52,29.73,29.51,21,8,21,0.00
2014-7-29,74.2,70.4,66.6,65.4,60.1,54.3,88,71,51,29.94,29.73,18,6,18,0.00
2014-7-30,76.8,71.3,64.7,66.0,60.4,57.5,84,69,55,30.02,29.93,11,3,11,0.00
2014-7-31,82.4,76.7,70.1,75.3,69.9,63.0,94,80,65,30.07,29.99,13,4,13,0.00
2014-8-1,82.0,75.0,68.8,77.4,70.7,65.0,98,87,76,30.14,30.07,14,4,14,0.13
2014-8-2,76.1,71.6,66.0,72.4,69.8,66.0,100,94,84,30.08,30.00,16,6,16,0.36
2014-8-3,80.5,74.0,69.8,76.7,72.0,69.8,100,94,78,30.02,29.94,14,4,14,0.20
2014-8-4,83.2,75.6,69.3,75.2,70.4,67.6,100,85,68,30.03,29.98,10,2,10,0.00
2014-8-5,88.4,78.3,69.6,78.3,71.4,65.0,100,81,50,30.00,29.87,8,1,8,0.00
2014-8-6,85.9,77.4,71.5,75.1,70.5,67.4,93,80,64,29.88,29.83,13,3,13,0.00
2014-8-7,85.1,76.8,70.8,71.7,67.4,62.7,97,74,52,29.97,29.85,14,3,14,0.00
2014-8-8,81.6,74.7,70.3,68.8,63.5,59.9,87,69,53,30.07,29.97,10,3,10,0.00
2014-8-9,81.6,76.9,72.7,73.5,68.5,62.1,89,75,66,30.06,30.00,11,3,11,0.00
2014-8-10,85.7,78.0,70.8,75.8,69.3,59.2,98,76,43,30.07,30.00,13,2,13,0.00
2014-8-11,82.8,76.0,71.3,73.5,68.9,65.1,95,79,61,30.06,29.96,16,7,16,0.00
2014-8-12,78.5,75.8,73.5,77.7,75.2,71.9,100,98,90,29.95,29.68,25,10,25,0.51
2014-8-13,83.0,77.2,72.1,76.1,69.4,60.5,100,78,57,29.82,29.66,19,6,19,0.00
2014-8-14,81.2,73.9,67.3,68.2,61.5,54.3,79,66,47,29.89,29.78,19,4,19,0.00
2014-8-15,76.3,71.3,66.9,63.0,57.4,52.8,75,62,48,29.96,29.86,13,4,13,0.00
2014-8-16,80.3,74.2,67.9,68.1,64.8,59.2,88,73,56,29.96,29.87,11,2,11,0.00
2014-8-17,85.9,78.0,73.0,74.6,69.9,64.1,88,76,65,29.87,29.80,16,4,16,0.00
2014-8-18,80.9,75.6,71.6,72.2,67.5,63.4,88,76,62,29.87,29.74,15,6,15,0.00
2014-8-19,84.3,76.9,72.5,74.5,71.1,66.3,98,83,64,29.85,29.72,21,7,21,0.00
2014-8-20,84.3,76.3,69.4,72.0,68.9,62.9,95,79,57,29.95,29.85,16,4,16,0.00
2014-8-21,84.7,78.6,72.8,78.3,74.7,70.3,100,88,72,29.99,29.90,12,3,12,0.00
2014-8-22,80.5,76.7,72.8,77.1,74.0,70.3,97,91,82,29.94,29.87,16,6,16,0.00
2014-8-23,75.8,71.9,69.6,72.4,69.3,66.1,99,92,79,30.02,29.91,19,8,19,0.08
2014-8-24,78.6,72.7,68.4,68.4,66.2,63.3,96,81,62,30.08,30.00,17,6,17,0.00
2014-8-25,81.1,73.5,66.8,67.9,65.3,62.3,94,76,55,30.11,30.05,14,5,14,0.00
2014-8-26,83.6,76.2,68.3,72.2,68.5,64.3,97,78,59,30.09,30.01,13,4,13,0.00
2014-8-27,86.1,76.5,67.3,75.4,70.0,64.1,100,82,48,30.02,29.83,10,2,10,0.00
2014-8-28,83.4,78.4,72.7,74.6,68.9,61.8,91,73,53,30.01,29.79,18,7,18,0.00
2014-8-29,78.5,72.1,65.6,67.5,60.7,55.9,90,68,51,30.15,30.00,18,5,18,0.00
2014-8-30,82.6,74.7,68.8,73.8,67.5,62.8,90,79,62,30.17,30.05,13,6,13,0.00
2014-8-31,87.6,82.6,73.7,79.3,77.5,73.3,100,85,73,30.06,29.92,19,5,19,0.07
2014-9-1,87.2,79.9,73.3,80.4,77.4,73.3,100,92,76,29.99,29.87,12,2,12,0.19
2014-9-2,90.7,83.0,76.7,80.9,77.3,74.0,100,84,62,29.91,29.78,13,2,16,0.04
2014-9-3,83.0,79.0,75.4,76.5,71.2,64.8,99,78,56,30.06,29.83,12,4,13,0.00
2014-9-4,86.5,79.6,73.0,77.7,73.2,66.2,100,82,62,30.11,30.03,11,4,11,0.00
2014-9-5,88.2,81.1,74.0,80.1,76.9,73.9,100,87,73,30.10,29.95,12,3,12,0.00
2014-9-6,90.5,81.9,72.3,80.5,76.6,71.7,100,85,66,29.97,29.78,21,3,21,0.61
2014-9-7,77.9,74.1,70.9,74.7,67.1,62.0,100,79,59,30.10,29.88,22,8,22,0.00
2014-9-8,73.2,71.5,69.1,71.0,67.3,64.3,96,87,76,30.17,30.07,24,9,24,0.01
2014-9-9,76.7,72.7,69.1,71.9,69.1,66.2,97,89,76,30.11,30.01,17,7,17,0.00
2014-9-10,80.3,73.1,67.3,71.4,67.8,64.8,99,84,65,30.06,29.94,17,5,18,0.00
2014-9-11,77.4,73.7,72.1,72.9,71.3,70.4,98,92,84,29.94,29.85,17,6,18,0.00
2014-9-12,74.0,71.9,69.1,64.7,63.4,61.6,83,75,66,30.06,30.01,13,6,16,0.00
2014-9-13,71.8,68.4,66.0,69.3,65.4,60.5,100,90,78,30.12,30.02,20,5,20,0.24
2014-9-14,68.3,63.8,58.9,61.7,55.9,52.0,86,76,61,30.24,30.12,19,5,20,0.00
2014-9-15,71.6,66.4,59.5,65.2,58.6,54.4,91,77,58,30.18,29.98,12,3,14,0.00
2014-9-16,75.8,70.9,67.1,67.7,63.6,59.1,98,79,57,29.98,29.91,14,5,16,0.04
2014-9-17,76.0,68.8,63.7,62.0,57.9,52.0,88,70,44,29.99,29.89,13,4,14,0.00
2014-9-18,75.6,69.2,63.5,66.1,62.1,56.0,95,78,66,30.03,29.89,12,3,12,0.43
2014-9-19,76.3,66.2,60.7,66.0,62.5,57.7,100,88,64,30.24,30.03,18,5,20,0.02
2014-9-20,78.8,70.7,65.2,70.5,66.5,63.8,99,87,67,30.22,29.96,14,5,14,0.00
2014-9-21,78.6,72.0,67.3,71.2,68.6,63.4,100,90,64,29.96,29.58,13,3,15,0.00
2014-9-22,74.9,68.4,62.4,67.1,55.5,51.4,78,64,56,30.14,29.65,19,8,20,0.00
2014-9-23,67.6,62.1,57.6,56.6,52.5,48.3,84,71,59,30.31,30.14,17,6,18,0.00
2014-9-24,71.1,65.1,60.2,64.8,60.9,55.7,100,87,74,30.37,30.23,22,9,24,0.08
2014-9-25,65.8,64.2,63.1,65.6,63.9,62.0,100,99,94,30.23,30.11,27,12,28,0.79
2014-9-26,72.0,66.0,61.6,63.4,61.2,59.2,100,85,66,30.17,30.11,14,5,15,0.01
2014-9-27,77.7,68.6,62.4,67.8,63.6,60.5,100,85,60,30.17,30.10,10,2,11,0.00
2014-9-28,78.8,69.1,63.4,69.8,65.1,61.5,100,88,60,30.13,29.97,6,1,6,0.00
2014-9-29,71.5,67.6,62.9,69.4,65.8,62.9,100,94,83,29.97,29.86,6,1,7,0.03
2014-9-30,75.4,69.2,63.5,69.4,66.4,61.9,100,91,75,29.88,29.79,16,2,17,0.00
2014-10-1,73.9,67.3,63.4,67.1,64.7,63.1,100,92,72,30.00,29.87,13,5,13,0.00
2014-10-2,72.7,67.1,62.9,65.8,62.9,60.5,98,87,71,30.06,29.99,12,5,13,0.00
2014-10-3,72.7,67.3,62.7,67.8,64.0,61.3,100,89,74,30.05,29.67,21,8,21,0.04
2014-10-4,71.5,65.5,52.2,71.1,56.8,34.1,100,75,48,29.76,29.52,24,8,25,0.00
2014-10-5,58.0,52.8,50.5,42.9,38.0,34.8,62,57,51,29.88,29.76,13,5,17,0.00
2014-10-18,70.9,60.9,54.8,55.4,48.8,45.0,71,65,55,29.79,29.60,21,9,21,0.01
2014-10-19,57.6,54.8,51.3,46.6,41.5,35.6,78,61,45,30.04,29.77,24,7,24,0.00
2014-10-20,64.7,57.9,48.0,54.3,47.9,41.1,86,69,55,30.07,29.86,18,5,18,0.00
2014-10-21,65.3,61.1,56.5,60.0,56.1,51.8,100,84,71,29.86,29.73,22,3,22,0.00
2014-10-22,57.0,56.2,54.5,57.0,55.2,49.7,100,96,83,29.82,29.74,28,14,28,0.00
2014-10-23,61.5,57.5,53.6,55.7,50.5,47.6,86,78,69,29.82,29.73,25,9,25,0.00
2014-10-24,66.3,60.1,55.1,54.0,49.4,44.7,91,68,55,29.88,29.79,24,6,24,0.01
2014-10-25,69.3,60.3,53.2,58.5,50.3,44.7,83,70,47,29.89,29.63,13,4,13,0.00
2014-10-26,68.3,62.2,57.5,53.4,46.0,40.2,80,56,37,29.86,29.60,17,6,21,0.00
2014-10-27,64.2,59.6,53.9,57.3,49.7,42.0,93,70,51,30.03,29.87,8,3,11,0.00
2014-10-28,71.8,65.6,60.4,62.9,58.4,51.8,90,78,64,29.98,29.86,11,3,12,0.00
2014-10-29,69.1,61.5,52.2,63.8,57.4,50.5,100,87,69,29.92,29.83,21,4,24,0.00
2014-10-30,59.2,54.7,50.8,52.9,48.0,44.4,100,79,60,29.99,29.90,18,6,18,0.00
2014-10-31,56.9,52.1,49.1,47.9,44.3,40.6,85,75,57,29.94,29.70,14,7,14,0.00
2014-11-1,52.6,50.1,46.7,51.1,46.7,39.2,100,88,73,29.77,29.64,34,18,37,0.00
2014-11-2,50.2,46.9,43.1,40.9,34.1,26.2,91,62,40,30.13,29.75,35,15,35,0.00
2014-11-3,60.7,52.2,43.9,47.0,34.7,26.0,74,52,33,30.25,30.13,21,5,21,0.00
2014-11-4,54.7,52.8,49.9,41.6,40.3,38.2,71,63,54,30.14,30.12,8,2,12,0.00
2014-11-8,51.9,49.8,47.7,44.3,40.9,34.9,85,72,54,29.92,29.86,16,4,16,0.00
2014-11-9,56.2,50.5,45.4,49.5,45.6,41.3,100,84,70,29.97,29.83,13,1,13,0.00
2014-11-10,60.2,51.4,44.2,50.8,47.7,44.1,100,88,60,30.10,29.97,7,1,7,0.00
2014-11-11,62.0,54.7,46.8,59.8,54.3,46.8,100,98,90,30.02,29.80,7,1,8,0.00
2014-11-12,67.8,57.9,47.4,62.9,52.1,38.7,100,83,56,30.03,29.79,20,4,20,0.00
2014-11-13,47.4,43.7,38.3,40.0,37.1,34.2,97,78,66,30.08,29.96,18,9,20,0.00
2014-11-14,42.5,38.7,36.0,37.0,27.9,21.1,93,66,49,30.21,29.96,24,9,24,0.01
2014-11-15,43.5,37.9,33.4,33.6,28.2,25.1,77,68,53,30.35,30.21,18,5,19,0.00
2014-11-16,47.3,44.2,39.8,43.8,35.0,29.8,94,71,53,30.31,29.96,13,4,13,0.00
2014-11-17,52.3,47.5,42.1,52.3,46.2,30.1,100,95,62,29.95,29.46,22,4,22,0.00
2014-11-18,42.1,31.3,27.0,30.4,14.1,7.0,66,49,37,30.20,29.69,34,11,34,0.60
2014-11-19,40.1,31.4,25.3,24.8,15.3,8.0,56,51,44,30.29,30.00,35,7,35,0.07
2014-11-20,53.6,44.0,37.3,38.3,28.7,17.4,70,55,43,30.03,29.82,26,7,26,0.14
2014-11-21,37.3,33.7,29.8,21.4,17.2,13.7,69,51,39,30.49,30.03,22,6,22,0.00
2014-11-22,46.8,40.0,28.7,32.6,26.7,19.7,78,60,42,30.49,30.19,13,3,13,0.00
2014-11-23,52.3,46.5,44.1,52.3,40.0,29.3,100,79,54,30.20,29.72,16,3,16,0.10
2014-11-24,64.2,57.9,51.3,60.9,56.3,51.3,100,95,80,29.74,29.56,33,6,33,0.16
2014-11-25,61.6,52.5,46.0,60.3,47.6,40.0,100,84,66,30.08,29.71,13,2,13,0.00
2014-11-26,47.7,41.1,36.9,45.3,40.4,36.5,100,98,85,30.08,29.71,27,10,27,1.15
2014-11-27,43.1,39.5,37.0,38.3,35.4,32.2,94,85,68,30.08,29.91,20,4,20,0.00
2014-11-28,40.3,36.6,32.9,33.6,26.1,22.5,81,65,53,30.23,30.07,22,6,22,0.00
2014-11-29,45.4,39.5,33.2,39.4,31.9,22.6,86,74,64,30.28,30.10,16,7,16,0.00
2014-11-30,56.3,49.6,43.3,49.0,43.1,37.2,85,78,67,30.11,29.99,14,4,14,0.00
2014-12-1,63.2,53.5,45.1,55.2,49.6,41.9,100,87,72,30.38,30.05,28,5,28,0.36
2014-12-2,45.1,39.0,36.9,42.3,38.0,36.4,100,96,77,30.50,30.23,19,7,19,0.44
2014-12-3,51.9,46.2,38.9,51.9,44.6,31.7,100,94,62,30.23,29.96,17,3,17,0.02
2014-12-4,43.8,41.1,38.3,36.8,32.8,30.0,86,72,62,30.43,30.23,16,3,16,0.01
2014-12-5,42.9,41.1,39.5,42.9,38.2,33.2,100,90,76,30.47,30.26,8,2,8,0.02
2014-12-6,48.0,45.4,42.8,48.0,45.4,42.5,100,100,99,30.26,29.96,28,4,28,0.60
2014-12-7,44.2,41.2,37.0,42.5,33.2,24.5,99,73,59,30.47,30.13,31,15,31,0.11
2014-12-8,37.0,35.0,33.2,36.9,29.9,21.6,100,82,58,30.49,30.09,21,11,21,0.04
2014-12-9,46.0,41.1,36.3,45.5,40.6,36.3,100,98,92,30.09,29.73,25,12,25,0.41
2014-12-10,48.9,43.8,38.9,41.4,35.9,29.2,92,74,64,29.76,29.68,25,10,25,0.00
2014-12-11,42.3,38.6,34.4,34.0,27.4,18.4,96,65,40,29.93,29.75,25,7,25,0.00
2014-12-12,42.6,40.4,38.0,32.1,27.9,17.3,75,62,39,30.04,29.92,19,8,21,0.00
2014-12-13,42.9,38.5,34.9,36.6,32.5,28.1,91,79,66,30.05,29.92,14,5,16,0.00
2014-12-14,49.8,43.6,37.0,42.6,38.4,32.6,91,82,74,29.95,29.86,11,2,11,0.00
2014-12-15,48.6,43.9,41.3,44.1,41.7,39.7,100,92,79,30.04,29.95,8,2,8,0.00
2014-12-16,49.5,45.2,42.3,47.6,45.0,42.3,100,99,91,30.00,29.79,13,3,14,0.07
2014-12-17,53.2,45.3,39.1,46.8,39.6,28.3,100,82,59,29.97,29.81,18,4,18,0.00
2014-12-18,40.3,37.8,36.2,29.8,27.8,24.9,72,67,60,30.09,29.97,24,7,24,0.00
2014-12-19,39.6,36.7,34.1,29.6,28.4,27.3,77,72,65,30.17,30.01,17,6,17,0.00
2014-12-20,37.9,34.1,31.9,31.4,28.4,26.3,90,80,71,30.26,30.15,14,2,14,0.00
2014-12-21,40.3,35.9,32.2,32.9,30.2,28.2,89,80,65,30.29,30.21,12,3,12,0.00
2014-12-22,41.1,36.4,32.7,41.1,35.2,29.3,100,96,85,30.25,29.95,14,7,16,0.05
2014-12-23,46.4,43.6,40.9,46.4,43.6,40.9,100,100,100,29.98,29.91,13,2,13,0.02
2014-12-24,55.4,49.1,42.8,55.4,49.1,42.8,100,100,100,29.95,29.49,12,2,12,0.99
2014-12-25,56.9,49.2,41.3,56.9,42.2,35.6,100,78,55,30.15,29.49,18,5,24,0.06
2014-12-26,48.2,41.8,35.8,40.8,38.2,35.0,100,87,69,30.28,30.14,7,1,7,0.00
2014-12-27,49.8,43.6,37.8,44.9,41.4,37.8,100,93,68,30.22,30.00,7,1,7,0.00
2014-12-28,54.7,48.6,45.1,49.2,45.5,43.0,100,89,72,30.03,29.83,16,2,16,0.10
2014-12-29,45.2,41.8,40.8,44.9,37.2,33.7,100,84,72,30.17,30.02,16,4,16,0.01
2014-12-30,41.3,37.0,30.6,34.7,29.6,25.5,85,75,67,30.35,30.17,16,5,16,0.00
2014-12-31,36.2,33.3,29.8,27.0,21.7,14.7,88,63,45,30.37,30.17,18,4,18,0.00
2015-1-1,44.2,38.2,32.1,32.8,26.7,19.2,72,63,49,30.18,30.00,17,5,17,0.00
2015-1-2,44.3,39.7,35.9,37.9,32.1,26.7,100,75,56,30.36,30.02,9,1,9,0.00